createdAt,value
2023-01-04T00:01:52.593Z,7.30
2023-01-04T00:06:45.950Z,11.20
2023-01-04T00:09:12.672Z,8.30
2023-01-04T00:11:39.381Z,11.60
2023-01-04T00:14:06.084Z,10.10
2023-01-04T00:16:32.987Z,9.10
2023-01-04T00:18:59.779Z,9.20
2023-01-04T00:21:28.475Z,10.00
2023-01-04T00:23:57.023Z,10.00
2023-01-04T00:26:28.716Z,6.00
2023-01-04T00:29:03.349Z,8.70
2023-01-04T00:31:30.652Z,8.30
2023-01-04T00:36:24.639Z,6.30
2023-01-04T00:41:58.808Z,7.00
2023-01-04T00:44:26.373Z,6.50
2023-01-04T00:46:53.384Z,8.40
2023-01-04T00:49:20.283Z,8.00
2023-01-04T00:51:47.007Z,8.20
2023-01-04T00:54:14.389Z,7.10
2023-01-04T00:56:41.118Z,9.10
2023-01-04T00:59:07.959Z,6.30
2023-01-04T01:04:03.449Z,8.10
2023-01-04T01:06:30.877Z,6.70
2023-01-04T01:08:57.621Z,7.60
2023-01-04T01:11:24.341Z,7.30
2023-01-04T01:13:51.256Z,6.30
2023-01-04T01:19:04.885Z,10.90
2023-01-04T01:21:32.846Z,7.90
2023-01-04T01:23:59.560Z,8.20
2023-01-04T01:26:26.363Z,5.00
2023-01-04T01:28:53.101Z,4.70
2023-01-04T01:31:22.322Z,4.50
2023-01-04T01:33:49.926Z,8.70
2023-01-04T01:36:17.652Z,6.10
2023-01-04T01:38:44.615Z,6.90
2023-01-04T01:41:37.849Z,5.50
2023-01-04T01:44:06.868Z,6.60
2023-01-04T01:46:48.625Z,6.00
2023-01-04T01:49:25.090Z,7.00
2023-01-04T01:51:52.891Z,5.00
2023-01-04T01:54:21.771Z,4.50
2023-01-04T01:56:48.857Z,3.30
2023-01-04T01:59:15.603Z,5.80
2023-01-04T02:01:42.395Z,5.30
2023-01-04T02:04:09.300Z,4.40
2023-01-04T02:09:04.184Z,6.50
2023-01-04T02:14:16.328Z,4.10
2023-01-04T02:17:06.453Z,4.60
2023-01-04T02:20:04.605Z,8.20
2023-01-04T02:22:50.065Z,6.90
2023-01-04T02:25:47.264Z,4.60
2023-01-04T02:29:10.803Z,6.30
2023-01-04T02:31:41.091Z,4.30
2023-01-04T02:34:16.608Z,4.40
2023-01-04T02:36:46.013Z,2.50
2023-01-04T02:39:28.053Z,6.40
2023-01-04T02:41:59.377Z,5.10
2023-01-04T02:44:50.721Z,4.50
2023-01-04T02:48:01.801Z,5.90
2023-01-04T02:50:31.481Z,4.30
2023-01-04T02:53:15.466Z,6.70
2023-01-04T02:55:49.469Z,4.40
2023-01-04T02:58:43.303Z,3.00
2023-01-04T03:01:52.199Z,6.60
2023-01-04T03:05:04.288Z,4.40
2023-01-04T03:07:49.849Z,4.70
2023-01-04T03:10:25.827Z,5.50
2023-01-04T03:12:56.487Z,4.10
2023-01-04T03:15:25.149Z,7.00
2023-01-04T03:18:14.674Z,3.70
2023-01-04T03:20:41.405Z,6.80
2023-01-04T03:23:27.190Z,15.20
2023-01-04T03:26:18.453Z,18.60
2023-01-04T03:29:04.051Z,13.80
2023-01-04T03:32:04.029Z,10.80
2023-01-04T03:34:49.431Z,10.80
2023-01-04T03:37:39.883Z,22.30
2023-01-04T03:40:44.060Z,9.70
2023-01-04T03:43:40.632Z,15.80
2023-01-04T03:46:53.859Z,12.10
2023-01-04T03:49:33.111Z,13.30
2023-01-04T03:52:00.730Z,18.20
2023-01-04T03:54:30.016Z,26.70
2023-01-04T03:56:56.746Z,25.20
2023-01-04T03:59:23.845Z,15.30
2023-01-04T04:01:50.637Z,18.10
2023-01-04T04:07:21.589Z,14.60
2023-01-04T04:09:48.329Z,16.80
2023-01-04T04:12:15.101Z,11.80
2023-01-04T04:14:41.832Z,21.40
2023-01-04T04:17:08.521Z,20.40
2023-01-04T04:19:35.261Z,20.10
2023-01-04T04:22:02.016Z,18.30
2023-01-04T04:24:28.760Z,27.10
2023-01-04T04:29:23.394Z,21.40
2023-01-04T04:31:50.363Z,18.00
2023-01-04T04:34:17.321Z,13.50
2023-01-04T04:39:11.615Z,14.10
2023-01-04T04:41:39.378Z,14.80
2023-01-04T04:44:10.589Z,19.30
2023-01-04T04:46:37.434Z,20.70
2023-01-04T04:51:30.806Z,10.20
2023-01-04T04:53:57.506Z,27.30
2023-01-04T04:56:24.241Z,35.70
2023-01-04T04:58:50.965Z,25.80
2023-01-04T05:01:18.221Z,27.00
2023-01-04T05:03:45.231Z,29.60
2023-01-04T05:08:38.694Z,28.00
2023-01-04T05:11:09.786Z,42.30
2023-01-04T05:13:36.939Z,26.80
2023-01-04T05:16:04.265Z,57.00
2023-01-04T05:18:31.092Z,23.90
2023-01-04T05:23:30.544Z,30.50
2023-01-04T05:25:58.914Z,38.60
2023-01-04T05:28:25.800Z,31.60
2023-01-04T05:35:48.386Z,30.70
2023-01-04T05:38:15.169Z,46.90
2023-01-04T05:40:41.885Z,33.40
2023-01-04T05:43:08.635Z,51.80
2023-01-04T05:45:35.595Z,59.70
2023-01-04T05:48:02.387Z,52.80
2023-01-04T05:50:29.095Z,57.90
2023-01-04T05:53:03.810Z,46.50
2023-01-04T05:55:30.596Z,43.50
2023-01-04T05:57:57.303Z,36.30
2023-01-04T06:00:24.069Z,25.20
2023-01-04T06:02:52.656Z,21.30
2023-01-04T06:05:19.542Z,10.80
2023-01-04T06:07:46.264Z,8.80
2023-01-04T06:12:40.064Z,9.30
2023-01-04T06:17:34.140Z,10.80
2023-01-04T06:22:28.181Z,16.60
2023-01-04T06:24:54.863Z,19.80
2023-01-04T06:27:21.558Z,22.40
2023-01-04T06:29:48.296Z,26.30
2023-01-04T06:32:15.086Z,28.60
2023-01-04T06:37:09.826Z,42.40
2023-01-04T06:39:37.364Z,33.00
2023-01-04T06:42:06.972Z,31.50
2023-01-04T06:44:34.246Z,37.00
2023-01-04T06:49:27.622Z,24.20
2023-01-04T06:51:54.410Z,14.50
2023-01-04T06:54:21.138Z,12.10
2023-01-04T06:56:47.861Z,11.10
2023-01-04T06:59:14.616Z,10.70
2023-01-04T07:01:41.466Z,16.20
2023-01-04T07:04:08.317Z,13.00
2023-01-04T07:06:35.017Z,13.60
2023-01-04T07:09:01.751Z,12.60
2023-01-04T07:11:28.494Z,13.50
2023-01-04T07:13:55.278Z,10.60
2023-01-04T07:16:22.101Z,8.70
2023-01-04T07:21:15.520Z,11.20
2023-01-04T07:23:42.223Z,9.40
2023-01-04T07:26:09.016Z,13.70
2023-01-04T07:31:21.375Z,11.00
2023-01-04T07:33:51.295Z,12.50
2023-01-04T07:36:18.025Z,13.30
2023-01-04T07:38:44.690Z,14.90
2023-01-04T07:41:11.489Z,11.70
2023-01-04T07:46:04.958Z,12.20
2023-01-04T07:50:58.445Z,7.90
2023-01-04T07:53:25.153Z,7.10
2023-01-04T07:55:58.415Z,6.30
2023-01-04T07:58:25.844Z,9.20
2023-01-04T08:00:52.607Z,7.50
2023-01-04T08:03:19.335Z,8.10
2023-01-04T08:05:46.759Z,10.30
2023-01-04T08:08:13.565Z,9.90
2023-01-04T08:10:40.283Z,9.80
2023-01-04T08:13:06.943Z,12.00
2023-01-04T08:15:33.794Z,11.70
2023-01-04T08:18:01.313Z,9.50
2023-01-04T08:20:27.995Z,12.50
2023-01-04T08:22:54.745Z,6.90
2023-01-04T08:25:21.583Z,6.70
2023-01-04T08:27:48.726Z,4.90
2023-01-04T08:30:15.521Z,6.80
2023-01-04T08:32:42.251Z,6.90
2023-01-04T08:35:09.072Z,6.00
2023-01-04T08:40:02.839Z,7.60
2023-01-04T08:42:31.770Z,6.60
2023-01-04T08:45:01.214Z,8.80
2023-01-04T08:47:29.456Z,7.30
2023-01-04T08:49:56.954Z,8.70
2023-01-04T08:52:23.718Z,13.40
2023-01-04T08:54:50.431Z,8.30
2023-01-04T08:57:17.666Z,8.60
2023-01-04T08:59:44.588Z,8.80
2023-01-04T09:04:49.146Z,6.30
2023-01-04T09:07:16.159Z,9.10
2023-01-04T09:09:42.948Z,9.10
2023-01-04T09:14:36.533Z,6.60
2023-01-04T09:17:03.316Z,7.80
2023-01-04T09:21:56.651Z,8.20
2023-01-04T09:24:23.425Z,7.20
2023-01-04T09:26:50.143Z,7.60
2023-01-04T09:29:16.947Z,10.60
2023-01-04T09:34:14.609Z,7.90
2023-01-04T09:36:42.482Z,8.70
2023-01-04T09:39:15.006Z,8.60
2023-01-04T09:41:59.243Z,9.80
2023-01-04T09:50:32.461Z,7.00
2023-01-04T09:53:38.194Z,7.30
2023-01-04T09:56:34.106Z,7.30
2023-01-04T09:59:01.995Z,8.50
2023-01-04T10:01:41.911Z,9.20
2023-01-04T10:04:19.253Z,5.80
2023-01-04T10:06:46.072Z,11.60
2023-01-04T10:12:10.821Z,9.30
2023-01-04T10:14:53.244Z,6.50
2023-01-04T10:17:57.435Z,8.80
2023-01-04T10:23:08.052Z,10.20
2023-01-04T10:25:47.357Z,9.90
2023-01-04T10:28:55.646Z,15.80
2023-01-04T10:31:39.546Z,10.10
2023-01-04T10:34:35.908Z,11.20
2023-01-04T10:37:21.046Z,11.60
2023-01-04T10:39:53.159Z,12.60
2023-01-04T10:42:35.015Z,10.70
2023-01-04T10:45:09.504Z,10.80
2023-01-04T10:47:48.107Z,8.00
2023-01-04T10:50:20.945Z,22.60
2023-01-04T10:53:08.875Z,13.70
2023-01-04T10:56:24.094Z,9.20
2023-01-04T10:58:52.176Z,8.90
2023-01-04T11:01:37.324Z,9.20
2023-01-04T11:04:10.519Z,10.60
2023-01-04T11:06:52.513Z,9.80
2023-01-04T11:09:25.446Z,7.10
2023-01-04T11:11:53.618Z,6.20
2023-01-04T11:14:20.439Z,6.40
2023-01-04T11:21:50.887Z,8.90
2023-01-04T11:24:33.712Z,9.30
2023-01-04T11:27:11.164Z,7.80
2023-01-04T11:30:05.000Z,8.10
2023-01-04T11:32:35.948Z,8.30
2023-01-04T11:35:02.757Z,10.80
2023-01-04T11:40:23.532Z,11.80
2023-01-04T11:42:52.491Z,7.90
2023-01-04T11:45:21.941Z,7.30
2023-01-04T11:47:58.214Z,7.40
2023-01-04T11:50:37.564Z,3.90
2023-01-04T11:53:22.638Z,4.20
2023-01-04T11:55:49.423Z,5.20
2023-01-04T11:58:17.185Z,5.20
2023-01-04T12:00:50.427Z,9.10
2023-01-04T12:03:40.456Z,17.50
2023-01-04T12:06:36.876Z,10.60
2023-01-04T12:09:03.763Z,7.10
2023-01-04T12:14:01.129Z,5.70
2023-01-04T12:16:58.788Z,6.90
2023-01-04T12:19:25.731Z,9.80
2023-01-04T12:21:54.431Z,6.90
2023-01-04T12:24:26.224Z,6.60
2023-01-04T12:26:53.202Z,6.90
2023-01-04T12:31:53.729Z,6.60
2023-01-04T12:34:24.105Z,6.70
2023-01-04T12:36:50.893Z,6.10
2023-01-04T12:39:22.587Z,5.30
2023-01-04T12:42:01.421Z,4.90
2023-01-04T12:44:38.725Z,6.60
2023-01-04T12:47:36.319Z,9.50
2023-01-04T12:50:13.988Z,7.30
2023-01-04T12:55:43.813Z,5.80
2023-01-04T12:59:06.579Z,10.20
2023-01-04T13:01:26.843Z,9.00
2023-01-04T13:04:05.608Z,12.10
2023-01-04T13:06:35.762Z,6.60
2023-01-04T13:09:02.600Z,5.70
2023-01-04T13:14:09.803Z,6.10
2023-01-04T13:16:43.060Z,5.20
2023-01-04T13:19:20.797Z,7.70
2023-01-04T13:21:47.589Z,8.10
2023-01-04T13:26:46.120Z,7.30
2023-01-04T13:29:15.736Z,7.10
2023-01-04T13:31:48.960Z,6.40
2023-01-04T13:34:33.033Z,6.40
2023-01-04T13:37:19.208Z,6.00
2023-01-04T13:39:47.832Z,7.60
2023-01-04T13:42:23.823Z,7.50
2023-01-04T13:45:19.519Z,7.50
2023-01-04T13:47:47.710Z,11.20
2023-01-04T13:50:40.493Z,14.40
2023-01-04T13:53:18.467Z,40.10
2023-01-04T13:55:46.726Z,45.10
2023-01-04T13:58:18.288Z,19.30
2023-01-04T14:01:12.893Z,20.20
2023-01-04T14:03:44.497Z,17.70
2023-01-04T14:06:11.325Z,13.70
2023-01-04T14:08:47.113Z,11.00
2023-01-04T14:11:45.102Z,14.70
2023-01-04T14:14:33.643Z,13.30
2023-01-04T14:17:17.899Z,19.80
2023-01-04T14:19:45.751Z,22.30
2023-01-04T14:22:45.012Z,19.20
2023-01-04T14:25:48.422Z,20.50
2023-01-04T14:28:18.879Z,16.70
2023-01-04T14:30:46.668Z,16.40
2023-01-04T14:33:13.396Z,16.20
2023-01-04T14:38:16.468Z,12.30
2023-01-04T14:40:43.251Z,15.70
2023-01-04T14:43:31.401Z,16.60
2023-01-04T14:45:58.162Z,15.40
2023-01-04T14:48:24.852Z,11.40
2023-01-04T14:50:51.522Z,13.90
2023-01-04T14:53:19.208Z,30.70
2023-01-04T14:55:45.971Z,47.20
2023-01-04T14:58:12.690Z,41.50
2023-01-04T15:00:39.532Z,55.10
2023-01-04T15:03:07.302Z,70.10
2023-01-04T15:08:05.077Z,51.10
2023-01-04T15:10:32.078Z,42.00
2023-01-04T15:13:00.693Z,41.10
2023-01-04T15:15:27.637Z,32.90
2023-01-04T15:20:20.949Z,24.80
2023-01-04T15:22:47.766Z,16.80
2023-01-04T15:25:14.513Z,17.90
2023-01-04T15:27:42.861Z,21.90
2023-01-04T15:30:13.223Z,25.30
2023-01-04T15:32:39.945Z,24.90
2023-01-04T15:35:06.978Z,22.30
2023-01-04T15:37:33.779Z,22.70
2023-01-04T15:40:03.294Z,31.10
2023-01-04T15:42:49.009Z,32.20
2023-01-04T15:45:15.853Z,29.40
2023-01-04T15:47:42.575Z,28.80
2023-01-04T15:50:09.622Z,30.00
2023-01-04T15:52:36.363Z,35.70
2023-01-04T15:55:03.356Z,31.40
2023-01-04T15:57:30.228Z,37.30
2023-01-04T16:02:23.869Z,37.30
2023-01-04T16:04:50.716Z,43.90
2023-01-04T16:07:17.678Z,48.40
2023-01-04T16:09:44.473Z,51.30
2023-01-04T16:14:56.629Z,56.70
2023-01-04T16:17:23.367Z,70.90
2023-01-04T16:19:50.086Z,73.00
2023-01-04T16:22:16.791Z,70.40
2023-01-04T16:27:35.422Z,71.60
2023-01-04T16:30:03.685Z,67.10
2023-01-04T16:32:30.505Z,84.00
2023-01-04T16:34:57.296Z,97.20
2023-01-04T16:37:28.138Z,92.00
2023-01-04T16:40:10.269Z,103.90
2023-01-04T16:42:37.583Z,105.30
2023-01-04T16:45:04.841Z,97.90
2023-01-04T16:47:40.080Z,95.00
2023-01-04T16:50:07.264Z,100.50
2023-01-04T16:52:34.000Z,104.70
2023-01-04T16:55:00.701Z,101.30
2023-01-04T16:57:27.408Z,118.50
2023-01-04T16:59:54.220Z,121.70
2023-01-04T17:04:54.423Z,113.20
2023-01-04T17:07:21.592Z,107.10
2023-01-04T17:09:51.390Z,104.00
2023-01-04T17:15:41.304Z,104.50
2023-01-04T17:17:52.091Z,102.60
2023-01-04T17:20:19.058Z,93.00
2023-01-04T17:25:12.405Z,92.50
2023-01-04T17:30:06.638Z,86.50
2023-01-04T17:32:33.382Z,83.10
2023-01-04T17:35:00.154Z,88.40
2023-01-04T17:37:27.092Z,85.50
2023-01-04T17:40:40.213Z,83.40
2023-01-04T17:43:07.082Z,79.10
2023-01-04T17:48:00.549Z,74.50
2023-01-04T17:50:27.287Z,82.30
2023-01-04T17:52:54.020Z,86.70
2023-01-04T17:55:20.733Z,97.40
2023-01-04T17:57:47.560Z,93.80
2023-01-04T18:02:42.970Z,68.50
2023-01-04T18:05:10.045Z,105.60
2023-01-04T18:07:36.739Z,112.20
2023-01-04T18:10:03.814Z,106.60
2023-01-04T18:12:30.689Z,103.60
2023-01-04T18:17:24.191Z,91.20
2023-01-04T18:19:50.990Z,77.20
2023-01-04T18:24:44.384Z,65.00
2023-01-04T18:27:27.467Z,76.00
2023-01-04T18:29:55.253Z,65.20
2023-01-04T18:32:22.844Z,67.80
2023-01-04T18:34:49.593Z,79.40
2023-01-04T18:37:18.307Z,96.90
2023-01-04T18:39:45.405Z,90.70
2023-01-04T18:42:12.265Z,86.20
2023-01-04T18:47:14.612Z,73.70
2023-01-04T18:49:41.358Z,74.80
2023-01-04T18:52:08.130Z,67.40
2023-01-04T18:54:34.962Z,67.10
2023-01-04T18:59:29.430Z,52.40
2023-01-04T19:02:01.478Z,51.00
2023-01-04T19:04:30.022Z,45.80
2023-01-04T19:06:57.313Z,50.90
2023-01-04T19:11:50.924Z,41.20
2023-01-04T19:16:44.557Z,32.30
2023-01-04T19:21:38.220Z,36.70
2023-01-04T19:24:05.153Z,25.50
2023-01-04T19:26:31.867Z,29.40
2023-01-04T19:28:58.632Z,24.40
2023-01-04T19:31:25.311Z,22.70
2023-01-04T19:33:52.064Z,23.50
2023-01-04T19:36:19.225Z,18.60
2023-01-04T19:38:46.210Z,22.00
2023-01-04T19:41:16.315Z,24.20
2023-01-04T19:43:43.113Z,26.90
2023-01-04T19:48:37.148Z,31.90
2023-01-04T19:51:07.458Z,34.60
2023-01-04T19:53:34.380Z,37.10
2023-01-04T19:56:01.097Z,35.10
2023-01-04T19:58:27.875Z,46.90
2023-01-04T20:00:55.352Z,40.90
2023-01-04T20:03:22.729Z,40.00
2023-01-04T20:05:50.017Z,33.90
2023-01-04T20:08:16.752Z,26.70
2023-01-04T20:10:43.559Z,26.20
2023-01-04T20:15:40.202Z,18.20
2023-01-04T20:18:13.341Z,17.00
2023-01-04T20:20:44.191Z,21.70
2023-01-04T20:23:11.150Z,25.90
2023-01-04T20:25:41.878Z,23.70
2023-01-04T20:28:08.585Z,18.10
2023-01-04T20:30:35.400Z,16.90
2023-01-04T20:35:28.923Z,21.00
2023-01-04T20:37:58.554Z,30.50
2023-01-04T20:40:25.708Z,39.90
2023-01-04T20:43:11.327Z,45.90
2023-01-04T20:45:45.331Z,37.40
2023-01-04T20:48:12.256Z,34.20
2023-01-04T20:50:39.098Z,27.60
2023-01-04T20:53:05.878Z,27.10
2023-01-04T20:55:32.764Z,25.20
2023-01-04T20:57:59.605Z,21.40
2023-01-04T21:00:26.298Z,21.70
2023-01-04T21:02:53.119Z,17.60
2023-01-04T21:07:46.670Z,15.70
2023-01-04T21:10:13.408Z,16.40
2023-01-04T21:12:40.110Z,21.90
2023-01-04T21:15:07.075Z,20.80
2023-01-04T21:17:33.827Z,27.90
2023-01-04T21:20:00.542Z,23.50
2023-01-04T21:22:27.288Z,20.50
2023-01-04T21:27:20.585Z,25.00
2023-01-04T21:29:47.294Z,29.00
2023-01-04T21:32:14.047Z,26.90
2023-01-04T21:34:40.738Z,28.80
2023-01-04T21:37:07.471Z,29.90
2023-01-04T21:39:34.340Z,26.30
2023-01-04T21:44:27.895Z,22.80
2023-01-04T21:46:54.689Z,25.10
2023-01-04T21:51:48.185Z,20.40
2023-01-04T21:54:14.912Z,18.50
2023-01-04T21:56:41.703Z,21.70
2023-01-04T21:59:08.440Z,18.50
2023-01-04T22:01:35.864Z,26.40
2023-01-04T22:04:03.331Z,22.40
2023-01-04T22:06:30.074Z,23.70
2023-01-04T22:08:58.639Z,25.90
2023-01-04T22:11:25.337Z,30.40
2023-01-04T22:13:52.109Z,25.50
2023-01-04T22:16:19.008Z,23.20
2023-01-04T22:23:41.031Z,22.00
2023-01-04T22:28:36.946Z,18.10
2023-01-04T22:31:08.435Z,17.80
2023-01-04T22:33:35.680Z,17.70
2023-01-04T22:36:06.668Z,21.60
2023-01-04T22:38:35.216Z,22.40
2023-01-04T22:41:08.111Z,18.30
2023-01-04T22:43:35.471Z,22.70
2023-01-04T22:46:02.734Z,15.80
2023-01-04T22:48:29.563Z,14.40
2023-01-04T22:53:23.092Z,13.50
2023-01-04T22:58:36.475Z,14.60
2023-01-04T23:01:04.076Z,19.80
2023-01-04T23:03:34.676Z,19.10
2023-01-04T23:06:05.206Z,14.50
2023-01-04T23:08:32.846Z,15.90
2023-01-04T23:11:06.480Z,18.20
2023-01-04T23:13:33.305Z,12.80
2023-01-04T23:18:29.582Z,11.40
2023-01-04T23:20:56.322Z,13.20
2023-01-04T23:23:23.037Z,14.40
2023-01-04T23:25:49.771Z,12.30
2023-01-04T23:28:16.504Z,12.20
2023-01-04T23:30:43.999Z,14.70
2023-01-04T23:33:11.211Z,11.30
2023-01-04T23:35:37.988Z,11.40
2023-01-04T23:38:04.732Z,15.10
2023-01-04T23:40:31.429Z,13.50
2023-01-04T23:42:59.491Z,9.50
2023-01-04T23:45:27.052Z,16.10
2023-01-04T23:47:53.805Z,13.40
2023-01-04T23:50:22.182Z,11.20
2023-01-04T23:52:48.958Z,14.80
2023-01-04T23:55:15.689Z,16.40
2023-01-04T23:57:42.399Z,14.40
